sensor_id;sensor_type;location;lat;lon;timestamp;temperature;humidity
37646;DHT22;23489;49.600;6.138;2024-03-23T00:55:40;10.00;99.90
37646;DHT22;23489;49.600;6.138;2024-03-23T00:58:06;10.00;99.90
37646;DHT22;23489;49.600;6.138;2024-03-23T01:00:32;9.90;99.90
37646;DHT22;23489;49.600;6.138;2024-03-23T01:02:57;9.90;99.90
37646;DHT22;23489;49.600;6.138;2024-03-23T01:05:23;9.90;99.90
37646;DHT22;23489;49.600;6.138;2024-03-23T01:07:48;9.90;99.90
37646;DHT22;23489;49.600;6.138;2024-03-23T01:10:14;10.00;99.90
37646;DHT22;23489;49.600;6.138;2024-03-23T01:12:40;10.00;99.90
37646;DHT22;23489;49.600;6.138;2024-03-23T01:15:05;9.90;99.90
37646;DHT22;23489;49.600;6.138;2024-03-23T01:17:31;9.90;99.90
37646;DHT22;23489;49.600;6.138;2024-03-23T01:19:57;9.80;99.90
37646;DHT22;23489;49.600;6.138;2024-03-23T01:22:23;9.80;99.90
37646;DHT22;23489;49.600;6.138;2024-03-23T01:24:48;9.60;99.90
37646;DHT22;23489;49.600;6.138;2024-03-23T01:27:14;9.60;99.90
37646;DHT22;23489;49.600;6.138;2024-03-23T01:29:40;9.50;99.90
37646;DHT22;23489;49.600;6.138;2024-03-23T01:32:05;9.30;99.90
37646;DHT22;23489;49.600;6.138;2024-03-23T01:34:32;9.10;99.90
37646;DHT22;23489;49.600;6.138;2024-03-23T01:36:58;8.90;99.90
37646;DHT22;23489;49.600;6.138;2024-03-23T01:39:24;8.80;99.90
37646;DHT22;23489;49.600;6.138;2024-03-23T01:41:50;8.70;99.90
37646;DHT22;23489;49.600;6.138;2024-03-23T01:44:17;8.60;99.90
37646;DHT22;23489;49.600;6.138;2024-03-23T01:46:43;8.50;99.90
37646;DHT22;23489;49.600;6.138;2024-03-23T01:49:09;8.40;99.90
37646;DHT22;23489;49.600;6.138;2024-03-23T01:51:36;8.30;99.90
37646;DHT22;23489;49.600;6.138;2024-03-23T01:54:02;8.20;99.90
37646;DHT22;23489;49.600;6.138;2024-03-23T01:56:33;7.90;99.90
37646;DHT22;23489;49.600;6.138;2024-03-23T01:59:04;7.70;99.90
37646;DHT22;23489;49.600;6.138;2024-03-23T02:01:31;7.60;99.90
37646;DHT22;23489;49.600;6.138;2024-03-23T02:03:57;7.50;99.90
37646;DHT22;23489;49.600;6.138;2024-03-23T02:06:24;7.40;99.90
37646;DHT22;23489;49.600;6.138;2024-03-23T02:08:50;7.40;99.90
37646;DHT22;23489;49.600;6.138;2024-03-23T02:11:16;7.40;99.90
37646;DHT22;23489;49.600;6.138;2024-03-23T02:13:42;7.40;99.90
37646;DHT22;23489;49.600;6.138;2024-03-23T02:16:08;7.40;99.90
37646;DHT22;23489;49.600;6.138;2024-03-23T02:18:34;7.40;99.90
37646;DHT22;23489;49.600;6.138;2024-03-23T02:21:00;7.40;99.90
37646;DHT22;23489;49.600;6.138;2024-03-23T02:23:25;7.40;99.90
37646;DHT22;23489;49.600;6.138;2024-03-23T02:25:51;7.40;99.90
37646;DHT22;23489;49.600;6.138;2024-03-23T02:28:19;7.40;99.90
37646;DHT22;23489;49.600;6.138;2024-03-23T02:30:45;7.30;99.90
37646;DHT22;23489;49.600;6.138;2024-03-23T02:33:10;7.40;99.90
37646;DHT22;23489;49.600;6.138;2024-03-23T02:35:36;7.30;99.90
37646;DHT22;23489;49.600;6.138;2024-03-23T02:38:02;7.30;99.90
37646;DHT22;23489;49.600;6.138;2024-03-23T02:40:28;7.20;99.90
37646;DHT22;23489;49.600;6.138;2024-03-23T02:42:54;7.10;99.90
37646;DHT22;23489;49.600;6.138;2024-03-23T02:45:20;7.20;99.90
37646;DHT22;23489;49.600;6.138;2024-03-23T02:47:46;7.20;99.90
37646;DHT22;23489;49.600;6.138;2024-03-23T02:50:12;7.10;99.90
37646;DHT22;23489;49.600;6.138;2024-03-23T02:52:38;7.20;99.90
37646;DHT22;23489;49.600;6.138;2024-03-23T02:55:04;7.20;99.90
37646;DHT22;23489;49.600;6.138;2024-03-23T02:57:30;7.10;99.90
37646;DHT22;23489;49.600;6.138;2024-03-23T02:59:56;7.10;99.90
37646;DHT22;23489;49.600;6.138;2024-03-23T03:02:22;7.10;99.90
37646;DHT22;23489;49.600;6.138;2024-03-23T03:04:47;7.10;99.90
37646;DHT22;23489;49.600;6.138;2024-03-23T03:07:14;7.10;99.90
37646;DHT22;23489;49.600;6.138;2024-03-23T03:09:40;7.10;99.90
37646;DHT22;23489;49.600;6.138;2024-03-23T03:12:06;7.10;99.90
37646;DHT22;23489;49.600;6.138;2024-03-23T03:14:32;7.20;99.90
37646;DHT22;23489;49.600;6.138;2024-03-23T03:16:57;7.10;99.90
37646;DHT22;23489;49.600;6.138;2024-03-23T03:19:23;7.10;99.90
37646;DHT22;23489;49.600;6.138;2024-03-23T03:21:49;7.10;99.90
37646;DHT22;23489;49.600;6.138;2024-03-23T03:24:15;7.10;99.90
37646;DHT22;23489;49.600;6.138;2024-03-23T03:26:42;7.10;99.90
37646;DHT22;23489;49.600;6.138;2024-03-23T03:29:08;7.10;99.90
37646;DHT22;23489;49.600;6.138;2024-03-23T03:31:33;7.10;99.90
37646;DHT22;23489;49.600;6.138;2024-03-23T03:33:59;7.00;99.90
37646;DHT22;23489;49.600;6.138;2024-03-23T03:36:25;7.00;99.90
37646;DHT22;23489;49.600;6.138;2024-03-23T03:38:50;7.00;99.90
37646;DHT22;23489;49.600;6.138;2024-03-23T03:41:17;6.90;99.90
37646;DHT22;23489;49.600;6.138;2024-03-23T03:43:43;6.80;99.90
37646;DHT22;23489;49.600;6.138;2024-03-23T03:46:09;6.80;99.90
37646;DHT22;23489;49.600;6.138;2024-03-23T03:48:36;6.80;99.90
37646;DHT22;23489;49.600;6.138;2024-03-23T03:51:02;6.70;99.90
37646;DHT22;23489;49.600;6.138;2024-03-23T03:53:28;6.70;99.90
37646;DHT22;23489;49.600;6.138;2024-03-23T03:55:53;6.60;99.90
37646;DHT22;23489;49.600;6.138;2024-03-23T03:58:19;6.60;99.90
37646;DHT22;23489;49.600;6.138;2024-03-23T04:00:45;6.50;99.90
37646;DHT22;23489;49.600;6.138;2024-03-23T04:03:11;6.50;99.90
37646;DHT22;23489;49.600;6.138;2024-03-23T04:05:36;6.40;99.90
37646;DHT22;23489;49.600;6.138;2024-03-23T04:08:03;6.30;99.90
37646;DHT22;23489;49.600;6.138;2024-03-23T04:10:30;6.10;99.90
37646;DHT22;23489;49.600;6.138;2024-03-23T04:12:55;6.10;99.90
37646;DHT22;23489;49.600;6.138;2024-03-23T04:15:21;6.20;99.90
37646;DHT22;23489;49.600;6.138;2024-03-23T04:17:47;6.10;99.90
37646;DHT22;23489;49.600;6.138;2024-03-23T04:20:13;6.20;99.90
37646;DHT22;23489;49.600;6.138;2024-03-23T04:22:45;6.10;99.90
37646;DHT22;23489;49.600;6.138;2024-03-23T04:25:11;6.10;99.90
37646;DHT22;23489;49.600;6.138;2024-03-23T04:27:37;6.10;99.90
37646;DHT22;23489;49.600;6.138;2024-03-23T04:30:03;6.10;99.90
37646;DHT22;23489;49.600;6.138;2024-03-23T04:32:35;6.10;99.90
37646;DHT22;23489;49.600;6.138;2024-03-23T04:35:01;6.00;99.90
37646;DHT22;23489;49.600;6.138;2024-03-23T04:37:26;5.90;99.90
37646;DHT22;23489;49.600;6.138;2024-03-23T04:39:52;5.90;99.90
37646;DHT22;23489;49.600;6.138;2024-03-23T04:42:18;5.90;99.90
37646;DHT22;23489;49.600;6.138;2024-03-23T04:44:43;5.80;99.90
37646;DHT22;23489;49.600;6.138;2024-03-23T04:47:10;5.80;99.90
37646;DHT22;23489;49.600;6.138;2024-03-23T04:49:38;5.70;99.90
37646;DHT22;23489;49.600;6.138;2024-03-23T04:52:04;5.70;99.90
37646;DHT22;23489;49.600;6.138;2024-03-23T04:54:30;5.70;99.90
37646;DHT22;23489;49.600;6.138;2024-03-23T04:56:56;5.60;99.90
37646;DHT22;23489;49.600;6.138;2024-03-23T04:59:21;5.60;99.90
37646;DHT22;23489;49.600;6.138;2024-03-23T05:01:47;5.60;99.90
37646;DHT22;23489;49.600;6.138;2024-03-23T05:04:12;5.60;99.90
37646;DHT22;23489;49.600;6.138;2024-03-23T05:06:38;5.50;99.90
37646;DHT22;23489;49.600;6.138;2024-03-23T05:09:04;5.50;99.90
37646;DHT22;23489;49.600;6.138;2024-03-23T05:11:33;5.60;99.90
37646;DHT22;23489;49.600;6.138;2024-03-23T05:13:59;5.50;99.90
37646;DHT22;23489;49.600;6.138;2024-03-23T05:16:24;5.50;99.90
37646;DHT22;23489;49.600;6.138;2024-03-23T05:18:51;5.40;99.90
37646;DHT22;23489;49.600;6.138;2024-03-23T05:21:17;5.40;99.90
37646;DHT22;23489;49.600;6.138;2024-03-23T05:23:43;5.40;99.90
37646;DHT22;23489;49.600;6.138;2024-03-23T05:26:09;5.30;99.90
37646;DHT22;23489;49.600;6.138;2024-03-23T05:28:35;5.30;99.90
37646;DHT22;23489;49.600;6.138;2024-03-23T05:31:01;5.30;99.90
37646;DHT22;23489;49.600;6.138;2024-03-23T05:33:26;5.20;99.90
37646;DHT22;23489;49.600;6.138;2024-03-23T05:36:00;5.20;99.90
37646;DHT22;23489;49.600;6.138;2024-03-23T05:38:26;5.20;99.90
37646;DHT22;23489;49.600;6.138;2024-03-23T05:40:54;5.20;99.90
37646;DHT22;23489;49.600;6.138;2024-03-23T05:43:19;5.20;99.90
37646;DHT22;23489;49.600;6.138;2024-03-23T05:45:45;5.20;99.90
37646;DHT22;23489;49.600;6.138;2024-03-23T05:48:10;5.20;99.90
37646;DHT22;23489;49.600;6.138;2024-03-23T05:50:36;5.30;99.90
37646;DHT22;23489;49.600;6.138;2024-03-23T05:53:02;5.20;99.90
37646;DHT22;23489;49.600;6.138;2024-03-23T05:55:30;5.20;99.90
37646;DHT22;23489;49.600;6.138;2024-03-23T05:57:55;5.20;99.90
37646;DHT22;23489;49.600;6.138;2024-03-23T06:00:21;5.20;99.90
37646;DHT22;23489;49.600;6.138;2024-03-23T06:02:46;5.30;99.90
37646;DHT22;23489;49.600;6.138;2024-03-23T06:05:12;5.30;99.90
37646;DHT22;23489;49.600;6.138;2024-03-23T06:07:37;5.40;99.90
37646;DHT22;23489;49.600;6.138;2024-03-23T06:10:04;5.40;99.90
37646;DHT22;23489;49.600;6.138;2024-03-23T06:12:30;5.60;99.90
37646;DHT22;23489;49.600;6.138;2024-03-23T06:14:55;5.70;99.90
37646;DHT22;23489;49.600;6.138;2024-03-23T06:17:21;5.90;99.90
37646;DHT22;23489;49.600;6.138;2024-03-23T06:19:47;6.00;99.90
37646;DHT22;23489;49.600;6.138;2024-03-23T06:22:12;6.00;99.90
37646;DHT22;23489;49.600;6.138;2024-03-23T06:24:38;6.10;99.90
37646;DHT22;23489;49.600;6.138;2024-03-23T06:27:04;6.10;99.90
37646;DHT22;23489;49.600;6.138;2024-03-23T06:29:29;6.10;99.90
37646;DHT22;23489;49.600;6.138;2024-03-23T06:31:55;6.10;99.90
37646;DHT22;23489;49.600;6.138;2024-03-23T06:34:21;6.20;99.90
37646;DHT22;23489;49.600;6.138;2024-03-23T06:36:50;6.10;99.90
37646;DHT22;23489;49.600;6.138;2024-03-23T06:39:16;6.10;99.90
37646;DHT22;23489;49.600;6.138;2024-03-23T06:41:42;6.10;99.90
37646;DHT22;23489;49.600;6.138;2024-03-23T06:44:07;6.10;99.90
37646;DHT22;23489;49.600;6.138;2024-03-23T06:46:33;6.00;99.90
37646;DHT22;23489;49.600;6.138;2024-03-23T06:48:59;6.00;99.90
37646;DHT22;23489;49.600;6.138;2024-03-23T06:51:24;6.00;99.90
37646;DHT22;23489;49.600;6.138;2024-03-23T06:53:50;6.00;99.90
37646;DHT22;23489;49.600;6.138;2024-03-23T06:56:15;6.20;99.90
37646;DHT22;23489;49.600;6.138;2024-03-23T06:58:41;6.40;99.90
37646;DHT22;23489;49.600;6.138;2024-03-23T07:01:07;6.70;99.90
37646;DHT22;23489;49.600;6.138;2024-03-23T07:03:32;6.70;99.90
37646;DHT22;23489;49.600;6.138;2024-03-23T07:05:58;6.80;99.90
37646;DHT22;23489;49.600;6.138;2024-03-23T07:08:24;6.80;99.90
37646;DHT22;23489;49.600;6.138;2024-03-23T07:10:50;6.90;99.90
37646;DHT22;23489;49.600;6.138;2024-03-23T07:13:15;6.80;99.90
37646;DHT22;23489;49.600;6.138;2024-03-23T07:15:42;6.90;99.90
37646;DHT22;23489;49.600;6.138;2024-03-23T07:18:08;7.00;99.90
37646;DHT22;23489;49.600;6.138;2024-03-23T07:20:34;7.30;99.90
37646;DHT22;23489;49.600;6.138;2024-03-23T07:22:59;7.50;99.90
37646;DHT22;23489;49.600;6.138;2024-03-23T07:25:25;8.10;99.90
37646;DHT22;23489;49.600;6.138;2024-03-23T07:27:55;8.70;99.90
37646;DHT22;23489;49.600;6.138;2024-03-23T07:30:21;8.80;99.90
37646;DHT22;23489;49.600;6.138;2024-03-23T07:32:46;8.70;99.90
37646;DHT22;23489;49.600;6.138;2024-03-23T07:35:12;8.40;99.90
37646;DHT22;23489;49.600;6.138;2024-03-23T07:37:38;8.90;99.90
37646;DHT22;23489;49.600;6.138;2024-03-23T07:40:04;10.70;99.90
37646;DHT22;23489;49.600;6.138;2024-03-23T07:42:30;12.00;99.90
37646;DHT22;23489;49.600;6.138;2024-03-23T07:44:56;13.10;99.90
37646;DHT22;23489;49.600;6.138;2024-03-23T07:47:22;14.00;99.90
37646;DHT22;23489;49.600;6.138;2024-03-23T07:49:48;14.70;99.90
37646;DHT22;23489;49.600;6.138;2024-03-23T07:52:14;15.40;99.90
37646;DHT22;23489;49.600;6.138;2024-03-23T07:54:40;15.50;99.90
37646;DHT22;23489;49.600;6.138;2024-03-23T07:57:05;15.50;99.90
37646;DHT22;23489;49.600;6.138;2024-03-23T07:59:32;15.90;99.90
37646;DHT22;23489;49.600;6.138;2024-03-23T08:01:59;14.70;99.90
37646;DHT22;23489;49.600;6.138;2024-03-23T08:04:25;14.80;99.90
37646;DHT22;23489;49.600;6.138;2024-03-23T08:06:51;15.30;99.90
37646;DHT22;23489;49.600;6.138;2024-03-23T08:09:16;16.50;99.90
37646;DHT22;23489;49.600;6.138;2024-03-23T08:11:42;14.40;99.90
37646;DHT22;23489;49.600;6.138;2024-03-23T08:14:10;14.50;99.90
37646;DHT22;23489;49.600;6.138;2024-03-23T08:16:36;14.70;99.90
37646;DHT22;23489;49.600;6.138;2024-03-23T08:19:02;16.00;99.90
37646;DHT22;23489;49.600;6.138;2024-03-23T08:21:29;16.00;99.60
37646;DHT22;23489;49.600;6.138;2024-03-23T08:23:55;14.20;99.90
37646;DHT22;23489;49.600;6.138;2024-03-23T08:26:20;13.10;99.90
37646;DHT22;23489;49.600;6.138;2024-03-23T08:28:46;11.60;99.90
37646;DHT22;23489;49.600;6.138;2024-03-23T08:31:13;10.70;99.90
37646;DHT22;23489;49.600;6.138;2024-03-23T08:33:42;10.20;99.90
37646;DHT22;23489;49.600;6.138;2024-03-23T08:36:09;10.10;99.90
37646;DHT22;23489;49.600;6.138;2024-03-23T08:38:38;10.50;99.90
37646;DHT22;23489;49.600;6.138;2024-03-23T08:41:05;11.70;99.90
37646;DHT22;23489;49.600;6.138;2024-03-23T08:43:40;13.70;99.90
37646;DHT22;23489;49.600;6.138;2024-03-23T08:46:07;13.80;99.90
37646;DHT22;23489;49.600;6.138;2024-03-23T08:48:41;14.10;99.90
37646;DHT22;23489;49.600;6.138;2024-03-23T08:51:09;16.00;99.90
37646;DHT22;23489;49.600;6.138;2024-03-23T08:53:35;15.70;98.70
37646;DHT22;23489;49.600;6.138;2024-03-23T08:56:02;14.70;99.30
37646;DHT22;23489;49.600;6.138;2024-03-23T08:58:28;14.40;99.90
37646;DHT22;23489;49.600;6.138;2024-03-23T09:00:56;13.30;99.90
37646;DHT22;23489;49.600;6.138;2024-03-23T09:03:22;14.00;99.90
37646;DHT22;23489;49.600;6.138;2024-03-23T09:05:48;15.40;99.80
37646;DHT22;23489;49.600;6.138;2024-03-23T09:08:13;16.00;98.70
37646;DHT22;23489;49.600;6.138;2024-03-23T09:10:39;17.30;95.80
37646;DHT22;23489;49.600;6.138;2024-03-23T09:13:05;16.80;95.20
37646;DHT22;23489;49.600;6.138;2024-03-23T09:15:32;13.60;97.80
37646;DHT22;23489;49.600;6.138;2024-03-23T09:17:59;12.20;99.90
37646;DHT22;23489;49.600;6.138;2024-03-23T09:20:25;11.50;99.90
37646;DHT22;23489;49.600;6.138;2024-03-23T09:22:51;11.90;99.90
37646;DHT22;23489;49.600;6.138;2024-03-23T09:25:16;12.70;99.90
37646;DHT22;23489;49.600;6.138;2024-03-23T09:27:42;13.60;99.90
37646;DHT22;23489;49.600;6.138;2024-03-23T09:30:08;13.90;99.80
37646;DHT22;23489;49.600;6.138;2024-03-23T09:32:35;12.70;99.90
37646;DHT22;23489;49.600;6.138;2024-03-23T09:35:01;12.30;99.90
37646;DHT22;23489;49.600;6.138;2024-03-23T09:37:26;12.70;99.90
37646;DHT22;23489;49.600;6.138;2024-03-23T09:39:52;14.00;99.90
37646;DHT22;23489;49.600;6.138;2024-03-23T09:42:17;15.70;98.10
37646;DHT22;23489;49.600;6.138;2024-03-23T09:44:43;14.20;98.20
37646;DHT22;23489;49.600;6.138;2024-03-23T09:47:09;13.70;99.60
37646;DHT22;23489;49.600;6.138;2024-03-23T09:49:35;11.90;99.90
37646;DHT22;23489;49.600;6.138;2024-03-23T09:52:04;10.60;99.90
37646;DHT22;23489;49.600;6.138;2024-03-23T09:54:30;10.20;99.90
37646;DHT22;23489;49.600;6.138;2024-03-23T09:56:55;9.40;99.90
37646;DHT22;23489;49.600;6.138;2024-03-23T09:59:21;9.50;99.90
37646;DHT22;23489;49.600;6.138;2024-03-23T10:01:46;9.60;99.90
37646;DHT22;23489;49.600;6.138;2024-03-23T10:04:35;9.60;99.90
37646;DHT22;23489;49.600;6.138;2024-03-23T10:07:05;9.40;99.90
37646;DHT22;23489;49.600;6.138;2024-03-23T10:09:35;8.90;99.90
37646;DHT22;23489;49.600;6.138;2024-03-23T10:12:10;8.60;99.90
37646;DHT22;23489;49.600;6.138;2024-03-23T10:14:37;7.90;99.90
37646;DHT22;23489;49.600;6.138;2024-03-23T10:17:13;7.30;99.90
37646;DHT22;23489;49.600;6.138;2024-03-23T10:19:45;6.40;99.90
37646;DHT22;23489;49.600;6.138;2024-03-23T10:22:18;6.00;99.90
37646;DHT22;23489;49.600;6.138;2024-03-23T10:24:43;5.50;99.90
37646;DHT22;23489;49.600;6.138;2024-03-23T10:27:09;5.30;99.90
37646;DHT22;23489;49.600;6.138;2024-03-23T10:29:35;5.10;99.90
37646;DHT22;23489;49.600;6.138;2024-03-23T10:32:10;5.00;99.90
37646;DHT22;23489;49.600;6.138;2024-03-23T10:34:36;5.90;99.90
37646;DHT22;23489;49.600;6.138;2024-03-23T10:37:02;8.20;99.90
37646;DHT22;23489;49.600;6.138;2024-03-23T10:39:39;9.70;99.90
37646;DHT22;23489;49.600;6.138;2024-03-23T10:42:06;11.30;99.90
37646;DHT22;23489;49.600;6.138;2024-03-23T10:44:36;12.90;99.90
37646;DHT22;23489;49.600;6.138;2024-03-23T10:47:03;13.20;99.90
37646;DHT22;23489;49.600;6.138;2024-03-23T10:49:30;14.00;99.90
37646;DHT22;23489;49.600;6.138;2024-03-23T10:52:03;13.40;99.90
37646;DHT22;23489;49.600;6.138;2024-03-23T10:54:30;12.40;99.90
37646;DHT22;23489;49.600;6.138;2024-03-23T10:57:09;12.60;99.90
37646;DHT22;23489;49.600;6.138;2024-03-23T10:59:37;10.80;99.90
37646;DHT22;23489;49.600;6.138;2024-03-23T11:02:03;10.40;99.90
37646;DHT22;23489;49.600;6.138;2024-03-23T11:04:33;9.80;99.90
37646;DHT22;23489;49.600;6.138;2024-03-23T11:06:59;9.20;99.90
37646;DHT22;23489;49.600;6.138;2024-03-23T11:14:49;8.20;99.90
37646;DHT22;23489;49.600;6.138;2024-03-23T11:17:19;7.40;99.90
37646;DHT22;23489;49.600;6.138;2024-03-23T11:19:46;7.10;99.90
37646;DHT22;23489;49.600;6.138;2024-03-23T11:22:17;7.00;99.90
37646;DHT22;23489;49.600;6.138;2024-03-23T11:25:03;6.90;99.90
37646;DHT22;23489;49.600;6.138;2024-03-23T11:27:29;7.10;99.90
37646;DHT22;23489;49.600;6.138;2024-03-23T11:29:54;7.40;99.90
37646;DHT22;23489;49.600;6.138;2024-03-23T11:32:34;7.60;99.90
37646;DHT22;23489;49.600;6.138;2024-03-23T11:35:00;7.80;99.90
37646;DHT22;23489;49.600;6.138;2024-03-23T11:37:26;7.60;99.90
37646;DHT22;23489;49.600;6.138;2024-03-23T11:39:52;7.60;99.90
37646;DHT22;23489;49.600;6.138;2024-03-23T11:42:17;7.70;99.90
37646;DHT22;23489;49.600;6.138;2024-03-23T11:44:43;7.90;99.90
37646;DHT22;23489;49.600;6.138;2024-03-23T11:47:09;8.00;99.90
37646;DHT22;23489;49.600;6.138;2024-03-23T11:49:36;8.10;99.90
37646;DHT22;23489;49.600;6.138;2024-03-23T11:52:07;8.40;99.90
37646;DHT22;23489;49.600;6.138;2024-03-23T11:54:33;8.90;99.90
37646;DHT22;23489;49.600;6.138;2024-03-23T11:57:08;9.20;99.90
37646;DHT22;23489;49.600;6.138;2024-03-23T11:59:41;9.70;99.90
37646;DHT22;23489;49.600;6.138;2024-03-23T12:02:11;9.70;99.90
37646;DHT22;23489;49.600;6.138;2024-03-23T12:04:48;9.60;99.90
37646;DHT22;23489;49.600;6.138;2024-03-23T12:07:19;9.80;99.90
37646;DHT22;23489;49.600;6.138;2024-03-23T12:09:46;9.90;99.90
37646;DHT22;23489;49.600;6.138;2024-03-23T12:12:17;9.80;99.90
37646;DHT22;23489;49.600;6.138;2024-03-23T12:14:44;9.90;99.90
37646;DHT22;23489;49.600;6.138;2024-03-23T12:17:14;10.00;99.90
37646;DHT22;23489;49.600;6.138;2024-03-23T12:19:41;9.80;99.90
37646;DHT22;23489;49.600;6.138;2024-03-23T12:22:08;7.40;99.90
37646;DHT22;23489;49.600;6.138;2024-03-23T12:24:34;6.20;99.90
37646;DHT22;23489;49.600;6.138;2024-03-23T12:27:04;6.00;99.90
37646;DHT22;23489;49.600;6.138;2024-03-23T12:29:34;6.10;99.90
37646;DHT22;23489;49.600;6.138;2024-03-23T12:32:01;6.50;99.90
37646;DHT22;23489;49.600;6.138;2024-03-23T12:34:27;6.90;99.90
37646;DHT22;23489;49.600;6.138;2024-03-23T12:36:53;7.10;99.90
37646;DHT22;23489;49.600;6.138;2024-03-23T12:39:19;7.20;99.90
37646;DHT22;23489;49.600;6.138;2024-03-23T12:41:48;7.40;99.90
37646;DHT22;23489;49.600;6.138;2024-03-23T12:44:14;7.50;99.90
37646;DHT22;23489;49.600;6.138;2024-03-23T12:46:41;7.50;99.90
37646;DHT22;23489;49.600;6.138;2024-03-23T12:49:07;7.50;99.90
37646;DHT22;23489;49.600;6.138;2024-03-23T12:51:32;7.30;99.90
37646;DHT22;23489;49.600;6.138;2024-03-23T12:53:58;7.10;99.90
37646;DHT22;23489;49.600;6.138;2024-03-23T12:56:24;7.00;99.90
37646;DHT22;23489;49.600;6.138;2024-03-23T12:58:49;6.90;99.90
37646;DHT22;23489;49.600;6.138;2024-03-23T13:01:17;6.90;99.90
37646;DHT22;23489;49.600;6.138;2024-03-23T13:03:42;6.70;99.90
37646;DHT22;23489;49.600;6.138;2024-03-23T13:06:10;6.90;99.90
37646;DHT22;23489;49.600;6.138;2024-03-23T13:08:36;6.80;99.90
37646;DHT22;23489;49.600;6.138;2024-03-23T13:11:01;6.80;99.90
37646;DHT22;23489;49.600;6.138;2024-03-23T13:13:27;7.00;99.90
37646;DHT22;23489;49.600;6.138;2024-03-23T13:15:53;7.30;99.90
37646;DHT22;23489;49.600;6.138;2024-03-23T13:18:18;7.40;99.90
37646;DHT22;23489;49.600;6.138;2024-03-23T13:20:44;7.70;99.90
37646;DHT22;23489;49.600;6.138;2024-03-23T13:23:10;7.70;99.90
37646;DHT22;23489;49.600;6.138;2024-03-23T13:25:35;7.60;99.90
37646;DHT22;23489;49.600;6.138;2024-03-23T13:28:02;7.70;99.90
37646;DHT22;23489;49.600;6.138;2024-03-23T13:30:29;7.30;99.90
37646;DHT22;23489;49.600;6.138;2024-03-23T13:32:55;7.40;99.90
37646;DHT22;23489;49.600;6.138;2024-03-23T13:35:21;7.50;99.90
37646;DHT22;23489;49.600;6.138;2024-03-23T13:37:47;7.60;99.90
37646;DHT22;23489;49.600;6.138;2024-03-23T13:40:13;7.70;99.90
37646;DHT22;23489;49.600;6.138;2024-03-23T13:42:39;7.70;99.90
37646;DHT22;23489;49.600;6.138;2024-03-23T13:45:05;7.90;99.90
37646;DHT22;23489;49.600;6.138;2024-03-23T13:47:31;7.90;99.90
37646;DHT22;23489;49.600;6.138;2024-03-23T13:49:56;7.80;99.90
37646;DHT22;23489;49.600;6.138;2024-03-23T13:52:22;7.90;99.90
37646;DHT22;23489;49.600;6.138;2024-03-23T13:54:52;7.70;99.90
37646;DHT22;23489;49.600;6.138;2024-03-23T13:57:17;6.50;99.90
37646;DHT22;23489;49.600;6.138;2024-03-23T13:59:47;5.10;99.90
37646;DHT22;23489;49.600;6.138;2024-03-23T14:02:14;4.50;99.90
37646;DHT22;23489;49.600;6.138;2024-03-23T14:04:40;3.80;99.90
37646;DHT22;23489;49.600;6.138;2024-03-23T14:07:06;3.40;99.90
37646;DHT22;23489;49.600;6.138;2024-03-23T14:09:32;3.30;99.90
37646;DHT22;23489;49.600;6.138;2024-03-23T14:11:58;3.30;99.90
37646;DHT22;23489;49.600;6.138;2024-03-23T14:14:25;3.20;99.90
37646;DHT22;23489;49.600;6.138;2024-03-23T14:16:51;3.10;99.90
37646;DHT22;23489;49.600;6.138;2024-03-23T14:19:16;3.00;99.90
37646;DHT22;23489;49.600;6.138;2024-03-23T14:21:42;3.00;99.90
37646;DHT22;23489;49.600;6.138;2024-03-23T14:24:08;3.10;99.90
37646;DHT22;23489;49.600;6.138;2024-03-23T14:26:35;3.30;99.90
37646;DHT22;23489;49.600;6.138;2024-03-23T14:29:00;3.70;99.90
37646;DHT22;23489;49.600;6.138;2024-03-23T14:31:26;3.90;99.90
37646;DHT22;23489;49.600;6.138;2024-03-23T14:33:52;4.00;99.90
37646;DHT22;23489;49.600;6.138;2024-03-23T14:36:17;4.00;99.90
37646;DHT22;23489;49.600;6.138;2024-03-23T14:38:47;4.00;99.90
37646;DHT22;23489;49.600;6.138;2024-03-23T14:41:13;4.20;99.90
37646;DHT22;23489;49.600;6.138;2024-03-23T14:43:38;4.40;99.90
37646;DHT22;23489;49.600;6.138;2024-03-23T14:48:33;4.80;99.90
37646;DHT22;23489;49.600;6.138;2024-03-23T14:50:59;5.00;99.90
37646;DHT22;23489;49.600;6.138;2024-03-23T14:53:25;5.00;99.90
37646;DHT22;23489;49.600;6.138;2024-03-23T14:55:55;5.20;99.90
37646;DHT22;23489;49.600;6.138;2024-03-23T14:58:21;5.40;99.90
37646;DHT22;23489;49.600;6.138;2024-03-23T15:00:48;5.60;99.90
37646;DHT22;23489;49.600;6.138;2024-03-23T15:03:14;5.60;99.90
37646;DHT22;23489;49.600;6.138;2024-03-23T15:05:40;5.60;99.90
37646;DHT22;23489;49.600;6.138;2024-03-23T15:08:06;5.60;99.90
37646;DHT22;23489;49.600;6.138;2024-03-23T15:10:33;5.40;99.90
37646;DHT22;23489;49.600;6.138;2024-03-23T15:12:59;5.30;99.90
37646;DHT22;23489;49.600;6.138;2024-03-23T15:15:24;5.20;99.90
37646;DHT22;23489;49.600;6.138;2024-03-23T15:17:50;5.20;99.90
37646;DHT22;23489;49.600;6.138;2024-03-23T15:20:16;5.20;99.90
37646;DHT22;23489;49.600;6.138;2024-03-23T15:22:42;5.40;99.90
37646;DHT22;23489;49.600;6.138;2024-03-23T15:25:07;5.40;99.90
37646;DHT22;23489;49.600;6.138;2024-03-23T15:27:33;5.50;99.90
37646;DHT22;23489;49.600;6.138;2024-03-23T15:29:59;5.60;99.90
37646;DHT22;23489;49.600;6.138;2024-03-23T15:32:25;5.80;99.90
37646;DHT22;23489;49.600;6.138;2024-03-23T15:34:50;5.90;99.90
37646;DHT22;23489;49.600;6.138;2024-03-23T15:37:17;6.00;99.90
37646;DHT22;23489;49.600;6.138;2024-03-23T15:39:43;6.00;99.90
37646;DHT22;23489;49.600;6.138;2024-03-23T15:42:08;5.80;99.90
37646;DHT22;23489;49.600;6.138;2024-03-23T15:44:35;5.50;99.90
37646;DHT22;23489;49.600;6.138;2024-03-23T15:47:01;5.50;99.90
37646;DHT22;23489;49.600;6.138;2024-03-23T15:49:27;5.40;99.90
37646;DHT22;23489;49.600;6.138;2024-03-23T15:51:52;5.30;99.90
37646;DHT22;23489;49.600;6.138;2024-03-23T15:54:19;5.40;99.90
37646;DHT22;23489;49.600;6.138;2024-03-23T15:56:44;5.50;99.90
37646;DHT22;23489;49.600;6.138;2024-03-23T15:59:10;5.60;99.90
37646;DHT22;23489;49.600;6.138;2024-03-23T16:01:35;5.60;99.90
37646;DHT22;23489;49.600;6.138;2024-03-23T16:04:03;5.70;99.90
37646;DHT22;23489;49.600;6.138;2024-03-23T16:06:28;5.70;99.90
37646;DHT22;23489;49.600;6.138;2024-03-23T16:08:54;5.70;99.90
37646;DHT22;23489;49.600;6.138;2024-03-23T16:11:20;5.70;99.90
37646;DHT22;23489;49.600;6.138;2024-03-23T16:13:46;5.60;99.90
37646;DHT22;23489;49.600;6.138;2024-03-23T16:16:12;5.60;99.90
37646;DHT22;23489;49.600;6.138;2024-03-23T16:18:38;5.40;99.90
37646;DHT22;23489;49.600;6.138;2024-03-23T16:21:07;5.40;99.90
37646;DHT22;23489;49.600;6.138;2024-03-23T16:23:33;5.40;99.90
37646;DHT22;23489;49.600;6.138;2024-03-23T16:26:00;5.30;99.90
37646;DHT22;23489;49.600;6.138;2024-03-23T16:28:27;5.40;99.90
37646;DHT22;23489;49.600;6.138;2024-03-23T16:33:22;5.50;99.90
37646;DHT22;23489;49.600;6.138;2024-03-23T16:35:57;5.50;99.90
37646;DHT22;23489;49.600;6.138;2024-03-23T16:38:23;5.40;99.90
37646;DHT22;23489;49.600;6.138;2024-03-23T16:41:00;5.20;99.90
37646;DHT22;23489;49.600;6.138;2024-03-23T16:43:26;5.10;99.90